Detall de PIREP

Printer-friendly versionPDF version

[2011/03/15 21:17:00]
Flight IATA:CT3231
Pilot Number:037
Company ICAO:CAT
Aircraft Type:B763/F
PAX:230
Departing Airport: ELLX
Destination Airport: LEPA
Alternate Airport:LEBL
Online: VATSIM
Route:GTQ UN852 VERSO UL129 LUNIK
Flight Level:F290
No Slew and time accel
No pause
Crash detect
Detect pilot in Cockpit between each 30 and 45 minutes
21:17 Zero fuel Weight: 244977 Lbs, Fuel Weight: 161733 Lbs
21:17 VATSIM:ELLX 152050Z 04010KT CAVOK 12/05 Q1010 NOSIG
21:17 VATSIM:LEPA 152100Z 21007KT 9999 FEW022 SCT055 14/12 Q1004 NOSIG
21:40 Parking Brakes off
22:19 Take-off
22:19 Take off Weight: 403210 Lbs
22:19 Wind: 052º @ 012 Knots Heading: 059º
22:19 POS N49º 38´ 02´´ E006º 13´ 54´´
22:19 Flaps:3 at 188 Knots
22:19 Gear Up: 190 Knots
22:19 Flaps:2 at 198 Knots
22:19 Flaps:1 at 207 Knots
22:19 Flaps:0 at 214 Knots
22:32 TOC
22:32 Fuel Weight: 151188 Lb
22:34 Wind:042º@027 Knots Heading: 179º Ground Speed: 489 Knots Altitude 28917 ft
22:49 Wind:042º@010 Knots Heading: 180º Ground Speed: 478 Knots Altitude 28848 ft
23:04 Wind:026º@015 Knots Heading: 191º Ground Speed: 481 Knots Altitude 28848 ft
23:19 Wind:070º@041 Knots Heading: 205º Ground Speed: 498 Knots Altitude 28733 ft
23:26 TOD
23:26 Fuel Weight: 139696 Lb
23:45 Flaps:1 at 222 Knots
23:53 Flaps:2 at 197 Knots
23:54 Flaps:3 at 192 Knots
23:56 Gear Down: 173 Knots
23:56 Flaps:4 at 173 Knots
23:56 Flaps:5 at 169 Knots
23:59 Flaps:6 at 151 Knots
00:00 TouchDown:Rate -145 ft/min Speed: 138 Knots
00:00 VATSIM:LEPA 152330Z 22010KT 9999 FEW022 SCT055 14/12 Q1003 NOSIG
00:00 Land
00:00 Wind:222º@010 Knots
00:00 Heading: 239º
00:00 Flight Duration: 01:41
00:00 Landing Weight: 380025 Lbs
00:00 POS N39º 32´ 53´´ E002º 44´ 47´´
00:02 Parking brakes on
00:02 Block to Block Duration: 02:22
00:02 Final Fuel: 134592 Lbls
00:02 Spent Fuel: 27140 Lbls
00:02 Flight Length: 451 NM
00:02 TOD Land Length: 51 NM

Exportar CSV

Powered by Drupal - Modified by Danger4k